createdAt,value
2023-01-10T00:01:30.300Z,100.00
2023-01-10T00:04:33.082Z,99.69
2023-01-10T00:07:36.759Z,99.85
2023-01-10T00:10:39.599Z,99.50
2023-01-10T00:13:43.092Z,99.51
2023-01-10T00:16:45.902Z,99.06
2023-01-10T00:19:48.804Z,99.38
2023-01-10T00:22:51.657Z,99.53
2023-01-10T00:25:54.596Z,99.69
2023-01-10T00:28:57.491Z,99.50
2023-01-10T00:32:00.439Z,99.86
2023-01-10T00:35:06.861Z,100.00
2023-01-10T00:38:09.772Z,100.00
2023-01-10T00:41:32.529Z,99.25
2023-01-10T00:44:35.292Z,99.68
2023-01-10T00:47:38.581Z,99.89
2023-01-10T00:50:41.455Z,99.70
2023-01-10T00:53:44.291Z,99.95
2023-01-10T00:56:47.028Z,100.00
2023-01-10T00:59:49.822Z,99.99
2023-01-10T01:02:52.854Z,99.92
2023-01-10T01:05:55.772Z,99.47
2023-01-10T01:08:58.785Z,100.00
2023-01-10T01:12:01.686Z,100.00
2023-01-10T01:15:04.879Z,100.00
2023-01-10T01:18:08.752Z,98.99
2023-01-10T01:21:11.595Z,99.26
2023-01-10T01:24:14.509Z,98.53
2023-01-10T01:27:17.321Z,99.61
2023-01-10T01:30:20.286Z,99.69
2023-01-10T01:33:23.088Z,99.47
2023-01-10T01:36:25.979Z,99.38
2023-01-10T01:39:28.854Z,99.71
2023-01-10T01:42:35.155Z,100.00
2023-01-10T01:45:41.104Z,99.75
2023-01-10T01:48:44.464Z,99.89
2023-01-10T01:51:51.977Z,99.01
2023-01-10T01:54:58.488Z,98.21
2023-01-10T01:58:04.456Z,98.17
2023-01-10T02:01:08.035Z,98.27
2023-01-10T02:04:17.243Z,98.07
2023-01-10T02:07:21.521Z,98.11
2023-01-10T02:10:44.928Z,97.87
2023-01-10T02:13:49.256Z,96.94
2023-01-10T02:16:52.322Z,97.34
2023-01-10T02:19:59.542Z,97.55
2023-01-10T02:23:20.955Z,96.40
2023-01-10T02:26:42.012Z,96.38
2023-01-10T02:30:13.621Z,96.80
2023-01-10T02:33:37.587Z,96.27
2023-01-10T02:37:07.804Z,96.33
2023-01-10T02:40:13.680Z,95.62
2023-01-10T02:43:21.097Z,95.54
2023-01-10T02:46:28.504Z,95.67
2023-01-10T02:49:31.445Z,94.44
2023-01-10T02:52:34.243Z,94.28
2023-01-10T02:55:46.952Z,94.57
2023-01-10T02:59:11.256Z,93.82
2023-01-10T03:02:53.215Z,93.75
2023-01-10T03:06:01.146Z,94.05
2023-01-10T03:09:43.488Z,94.37
2023-01-10T03:12:55.631Z,94.23
2023-01-10T03:16:00.584Z,94.19
2023-01-10T03:19:17.954Z,95.01
2023-01-10T03:22:20.890Z,94.90
2023-01-10T03:25:28.741Z,94.69
2023-01-10T03:28:32.062Z,94.01
2023-01-10T03:31:59.215Z,93.72
2023-01-10T03:35:03.853Z,93.99
2023-01-10T03:38:26.459Z,93.88
2023-01-10T03:41:44.507Z,93.31
2023-01-10T03:44:50.016Z,93.33
2023-01-10T03:47:56.378Z,92.71
2023-01-10T03:51:03.784Z,92.91
2023-01-10T03:54:06.807Z,93.04
2023-01-10T03:57:16.957Z,92.78
2023-01-10T04:00:20.365Z,92.96
2023-01-10T04:03:23.178Z,92.81
2023-01-10T04:06:26.140Z,92.70
2023-01-10T04:09:28.931Z,92.74
2023-01-10T04:12:31.864Z,92.94
2023-01-10T04:15:34.713Z,92.38
2023-01-10T04:18:37.562Z,92.21
2023-01-10T04:21:40.308Z,92.39
2023-01-10T04:24:44.453Z,91.78
2023-01-10T04:27:50.559Z,91.61
2023-01-10T04:30:53.468Z,91.94
2023-01-10T04:33:56.362Z,91.96
2023-01-10T04:36:59.030Z,92.33
2023-01-10T04:40:02.429Z,92.50
2023-01-10T04:43:05.220Z,93.07
2023-01-10T04:46:08.113Z,93.41
2023-01-10T04:49:11.117Z,93.39
2023-01-10T04:52:13.931Z,93.72
2023-01-10T04:55:17.099Z,93.78
2023-01-10T04:58:20.111Z,93.00
2023-01-10T05:01:25.470Z,93.02
2023-01-10T05:04:28.430Z,93.65
2023-01-10T05:07:31.350Z,93.49
2023-01-10T05:10:34.123Z,93.49
2023-01-10T05:13:37.046Z,93.67
2023-01-10T05:16:39.881Z,92.89
2023-01-10T05:19:43.017Z,93.58
2023-01-10T05:22:46.143Z,92.83
2023-01-10T05:25:48.901Z,92.97
2023-01-10T05:28:52.349Z,92.96
2023-01-10T05:31:55.515Z,91.60
2023-01-10T05:34:58.356Z,91.72
2023-01-10T05:38:01.214Z,92.08
2023-01-10T05:41:03.985Z,92.21
2023-01-10T05:44:08.154Z,92.84
2023-01-10T05:47:11.161Z,92.32
2023-01-10T05:50:14.073Z,91.64
2023-01-10T05:53:17.015Z,91.65
2023-01-10T05:56:19.887Z,91.84
2023-01-10T05:59:29.822Z,91.39
2023-01-10T06:02:33.272Z,91.40
2023-01-10T06:05:36.110Z,91.39
2023-01-10T06:08:39.012Z,90.88
2023-01-10T06:11:41.977Z,91.16
2023-01-10T06:14:45.540Z,91.47
2023-01-10T06:17:48.460Z,91.77
2023-01-10T06:20:51.726Z,90.81
2023-01-10T06:23:54.716Z,90.43
2023-01-10T06:26:57.456Z,90.74
2023-01-10T06:30:01.554Z,89.97
2023-01-10T06:33:06.500Z,90.69
2023-01-10T06:36:10.040Z,90.53
2023-01-10T06:39:12.944Z,90.28
2023-01-10T06:42:19.271Z,90.42
2023-01-10T06:45:22.285Z,90.65
2023-01-10T06:48:25.192Z,90.55
2023-01-10T06:51:28.047Z,90.28
2023-01-10T06:54:31.142Z,90.19
2023-01-10T06:57:38.516Z,90.59
2023-01-10T07:00:41.485Z,90.43
2023-01-10T07:03:45.120Z,89.77
2023-01-10T07:06:48.123Z,89.52
2023-01-10T07:09:52.004Z,89.78
2023-01-10T07:12:56.058Z,89.70
2023-01-10T07:16:11.071Z,90.65
2023-01-10T07:19:14.313Z,90.43
2023-01-10T07:22:17.154Z,89.94
2023-01-10T07:25:20.056Z,90.23
2023-01-10T07:28:23.095Z,89.72
2023-01-10T07:31:26.043Z,89.56
2023-01-10T07:34:28.994Z,88.69
2023-01-10T07:37:32.148Z,88.80
2023-01-10T07:40:36.286Z,88.20
2023-01-10T07:43:39.671Z,88.58
2023-01-10T07:46:42.827Z,88.31
2023-01-10T07:49:45.914Z,87.90
2023-01-10T07:52:48.889Z,88.30
2023-01-10T07:55:51.772Z,87.55
2023-01-10T07:58:54.664Z,88.13
2023-01-10T08:01:58.867Z,87.49
2023-01-10T08:05:03.120Z,86.81
2023-01-10T08:08:07.684Z,87.54
2023-01-10T08:11:12.666Z,87.57
2023-01-10T08:14:16.660Z,87.65
2023-01-10T08:17:20.261Z,87.14
2023-01-10T08:20:23.192Z,87.39
2023-01-10T08:23:26.078Z,87.55
2023-01-10T08:26:28.901Z,87.96
2023-01-10T08:29:31.942Z,87.86
2023-01-10T08:32:37.915Z,88.12
2023-01-10T08:35:43.154Z,88.35
2023-01-10T08:38:46.237Z,88.47
2023-01-10T08:41:49.721Z,87.42
2023-01-10T08:44:52.407Z,87.06
2023-01-10T08:47:55.397Z,87.44
2023-01-10T08:50:58.797Z,87.39
2023-01-10T08:54:01.951Z,87.54
2023-01-10T08:57:04.727Z,86.86
2023-01-10T09:00:08.167Z,86.98
2023-01-10T09:03:11.058Z,87.19
2023-01-10T09:06:13.981Z,87.66
2023-01-10T09:09:16.920Z,87.62
2023-01-10T09:12:38.227Z,87.61
2023-01-10T09:15:43.157Z,87.45
2023-01-10T09:18:46.334Z,87.05
2023-01-10T09:21:49.485Z,87.19
2023-01-10T09:24:52.615Z,86.97
2023-01-10T09:27:59.840Z,86.93
2023-01-10T09:31:04.587Z,86.92
2023-01-10T09:34:07.543Z,87.01
2023-01-10T09:37:11.721Z,86.93
2023-01-10T09:40:22.451Z,87.30
2023-01-10T09:44:18.087Z,86.32
2023-01-10T09:47:46.149Z,86.90
2023-01-10T09:51:10.722Z,86.53
2023-01-10T09:54:20.179Z,86.54
2023-01-10T09:57:24.262Z,86.80
2023-01-10T10:00:49.599Z,86.99
2023-01-10T10:03:55.214Z,86.34
2023-01-10T10:06:58.157Z,86.49
2023-01-10T10:10:01.196Z,86.62
2023-01-10T10:13:51.799Z,85.80
2023-01-10T10:17:18.983Z,86.34
2023-01-10T10:20:47.334Z,86.57
2023-01-10T10:24:02.007Z,86.08
2023-01-10T10:27:33.236Z,86.14
2023-01-10T10:30:42.905Z,85.72
2023-01-10T10:34:16.411Z,86.35
2023-01-10T10:37:33.763Z,86.03
2023-01-10T10:40:41.225Z,86.67
2023-01-10T10:43:47.171Z,86.32
2023-01-10T10:46:49.938Z,86.57
2023-01-10T10:50:02.191Z,86.61
2023-01-10T10:53:06.102Z,85.84
2023-01-10T10:56:14.454Z,86.03
2023-01-10T10:59:20.163Z,85.64
2023-01-10T11:02:29.634Z,85.32
2023-01-10T11:05:39.983Z,85.66
2023-01-10T11:08:45.844Z,85.57
2023-01-10T11:11:52.595Z,85.51
2023-01-10T11:14:55.495Z,85.77
2023-01-10T11:18:07.135Z,87.39
2023-01-10T11:21:13.890Z,87.11
2023-01-10T11:24:23.399Z,86.64
2023-01-10T11:27:32.737Z,86.67
2023-01-10T11:30:37.051Z,86.65
2023-01-10T11:33:42.207Z,86.16
2023-01-10T11:37:15.955Z,86.58
2023-01-10T11:40:27.774Z,86.20
2023-01-10T11:43:36.693Z,85.95
2023-01-10T11:46:44.788Z,86.36
2023-01-10T11:49:50.188Z,85.30
2023-01-10T11:52:53.812Z,85.51
2023-01-10T11:55:56.903Z,85.35
2023-01-10T11:59:12.709Z,85.54
2023-01-10T12:02:31.901Z,85.63
2023-01-10T12:05:34.954Z,85.28
2023-01-10T12:08:42.525Z,85.39
2023-01-10T12:11:45.443Z,86.19
2023-01-10T12:14:53.400Z,86.65
2023-01-10T12:18:02.839Z,86.76
2023-01-10T12:21:06.385Z,86.13
2023-01-10T12:24:22.677Z,85.80
2023-01-10T12:27:28.582Z,85.89
2023-01-10T12:30:43.872Z,85.53
2023-01-10T12:33:51.601Z,85.10
2023-01-10T12:37:05.761Z,85.41
2023-01-10T12:40:18.609Z,85.03
2023-01-10T12:44:01.814Z,85.59
2023-01-10T12:47:13.162Z,85.01
2023-01-10T12:50:27.901Z,85.89
2023-01-10T12:53:38.697Z,86.12
2023-01-10T12:56:42.650Z,86.83
2023-01-10T12:59:45.764Z,87.42
2023-01-10T13:02:53.522Z,87.67
2023-01-10T13:05:59.061Z,87.88
2023-01-10T13:09:13.481Z,87.60
2023-01-10T13:12:32.132Z,87.23
2023-01-10T13:15:42.357Z,87.37
2023-01-10T13:19:04.049Z,88.22
2023-01-10T13:22:36.152Z,87.60
2023-01-10T13:25:40.528Z,88.32
2023-01-10T13:29:00.059Z,88.47
2023-01-10T13:32:15.532Z,88.60
2023-01-10T13:35:20.240Z,89.20
2023-01-10T13:38:30.893Z,89.28
2023-01-10T13:42:17.480Z,88.77
2023-01-10T13:45:21.863Z,88.84
2023-01-10T13:48:28.169Z,89.12
2023-01-10T13:51:32.077Z,88.88
2023-01-10T13:54:35.303Z,89.97
2023-01-10T14:02:11.592Z,90.04
2023-01-10T14:05:18.938Z,89.49
2023-01-10T14:08:22.712Z,89.68
2023-01-10T14:11:30.708Z,89.57
2023-01-10T14:14:40.187Z,90.22
2023-01-10T14:17:43.185Z,89.44
2023-01-10T14:20:58.157Z,89.34
2023-01-10T14:24:01.416Z,89.29
2023-01-10T14:27:04.882Z,89.08
2023-01-10T14:30:08.307Z,88.69
2023-01-10T14:33:19.812Z,89.27
2023-01-10T14:36:33.686Z,89.89
2023-01-10T14:39:37.113Z,89.31
2023-01-10T14:42:40.333Z,89.85
2023-01-10T14:45:46.245Z,90.03
2023-01-10T14:48:55.365Z,90.49
2023-01-10T14:52:22.136Z,90.21
2023-01-10T14:55:25.484Z,90.07
2023-01-10T14:58:28.532Z,90.46
2023-01-10T15:01:31.736Z,91.33
2023-01-10T15:04:36.423Z,90.25
2023-01-10T15:07:39.386Z,90.95
2023-01-10T15:10:44.394Z,91.39
2023-01-10T15:13:59.894Z,91.25
2023-01-10T15:17:06.429Z,91.30
2023-01-10T15:20:18.076Z,90.17
2023-01-10T15:23:21.211Z,90.99
2023-01-10T15:26:30.140Z,91.17
2023-01-10T15:29:34.208Z,90.50
2023-01-10T15:32:39.659Z,91.06
2023-01-10T15:35:43.884Z,89.66
2023-01-10T15:38:48.019Z,89.89
2023-01-10T15:41:57.198Z,89.52
2023-01-10T15:45:22.581Z,90.88
2023-01-10T15:48:30.065Z,90.40
2023-01-10T15:51:38.872Z,89.95
2023-01-10T15:54:44.622Z,90.59
2023-01-10T15:57:51.791Z,90.44
2023-01-10T16:00:56.535Z,90.02
2023-01-10T16:04:02.899Z,89.95
2023-01-10T16:07:28.241Z,90.61
2023-01-10T16:10:37.157Z,89.99
2023-01-10T16:13:41.712Z,90.09
2023-01-10T16:16:44.487Z,89.70
2023-01-10T16:19:47.355Z,90.59
2023-01-10T16:22:50.669Z,89.92
2023-01-10T16:25:57.903Z,89.81
2023-01-10T16:29:00.739Z,89.31
2023-01-10T16:32:14.717Z,89.07
2023-01-10T16:35:19.758Z,89.83
2023-01-10T16:38:25.722Z,89.54
2023-01-10T16:41:48.103Z,89.01
2023-01-10T16:44:51.186Z,89.55
2023-01-10T16:47:53.899Z,89.63
2023-01-10T16:51:06.617Z,89.46
2023-01-10T16:54:14.856Z,89.66
2023-01-10T16:57:17.995Z,89.32
2023-01-10T17:00:21.108Z,89.26
2023-01-10T17:03:25.904Z,89.53
2023-01-10T17:06:28.952Z,89.37
2023-01-10T17:09:32.919Z,89.34
2023-01-10T17:12:38.280Z,88.93
2023-01-10T17:15:41.073Z,89.07
2023-01-10T17:18:43.840Z,89.88
2023-01-10T17:21:47.284Z,90.47
2023-01-10T17:24:50.105Z,89.31
2023-01-10T17:27:52.907Z,89.66
2023-01-10T17:30:56.504Z,89.82
2023-01-10T17:33:59.304Z,89.27
2023-01-10T17:37:02.153Z,89.92
2023-01-10T17:40:05.811Z,90.39
2023-01-10T17:43:09.665Z,89.38
2023-01-10T17:46:12.901Z,89.46
2023-01-10T17:49:15.897Z,89.65
2023-01-10T17:52:18.735Z,90.00
2023-01-10T17:55:21.506Z,89.78
2023-01-10T17:58:24.838Z,89.50
2023-01-10T18:01:27.796Z,89.72
2023-01-10T18:04:31.159Z,88.90
2023-01-10T18:07:34.056Z,90.24
2023-01-10T18:10:38.257Z,90.01
2023-01-10T18:13:40.982Z,90.82
2023-01-10T18:16:43.907Z,90.46
2023-01-10T18:19:47.399Z,89.79
2023-01-10T18:23:08.825Z,89.73
2023-01-10T18:26:13.149Z,90.10
2023-01-10T18:29:16.030Z,89.67
2023-01-10T18:32:20.910Z,89.06
2023-01-10T18:35:23.886Z,88.36
2023-01-10T18:38:27.021Z,88.86
2023-01-10T18:41:31.012Z,89.06
2023-01-10T18:44:33.773Z,89.02
2023-01-10T18:47:36.698Z,89.04
2023-01-10T18:50:39.620Z,89.51
2023-01-10T18:53:43.347Z,89.30
2023-01-10T18:56:46.558Z,88.80
2023-01-10T18:59:49.733Z,88.61
2023-01-10T19:02:54.436Z,89.82
2023-01-10T19:06:00.262Z,88.56
2023-01-10T19:09:04.349Z,88.57
2023-01-10T19:12:07.719Z,88.45
2023-01-10T19:15:11.376Z,88.58
2023-01-10T19:18:15.705Z,88.26
2023-01-10T19:21:19.639Z,88.14
2023-01-10T19:24:24.947Z,87.58
2023-01-10T19:27:28.766Z,87.68
2023-01-10T19:30:31.717Z,87.51
2023-01-10T19:33:35.051Z,86.93
2023-01-10T19:36:39.692Z,86.63
2023-01-10T19:39:42.768Z,87.39
2023-01-10T19:42:45.741Z,86.64
2023-01-10T19:45:48.731Z,86.90
2023-01-10T19:48:55.955Z,87.93
2023-01-10T19:51:59.079Z,87.44
2023-01-10T19:55:01.935Z,87.10
2023-01-10T19:58:05.440Z,86.48
2023-01-10T20:01:12.214Z,86.68
2023-01-10T20:04:15.263Z,86.32
2023-01-10T20:07:18.853Z,86.11
2023-01-10T20:10:21.807Z,85.78
2023-01-10T20:13:24.676Z,86.04
2023-01-10T20:16:27.738Z,85.88
2023-01-10T20:19:31.155Z,85.58
2023-01-10T20:22:34.046Z,85.05
2023-01-10T20:25:36.913Z,84.67
2023-01-10T20:28:40.487Z,84.32
2023-01-10T20:31:46.633Z,84.53
2023-01-10T20:34:52.256Z,83.60
2023-01-10T20:37:55.238Z,83.27
2023-01-10T20:41:03.010Z,83.05
2023-01-10T20:44:06.186Z,82.79
2023-01-10T20:47:09.155Z,82.93
2023-01-10T20:50:13.510Z,83.37
2023-01-10T20:53:16.302Z,83.47
2023-01-10T20:56:27.539Z,82.76
2023-01-10T20:59:32.542Z,82.31
2023-01-10T21:02:35.388Z,82.17
2023-01-10T21:05:39.012Z,82.83
2023-01-10T21:08:42.161Z,81.72
2023-01-10T21:11:59.845Z,81.74
2023-01-10T21:15:05.667Z,81.41
2023-01-10T21:18:09.343Z,81.31
2023-01-10T21:21:15.866Z,81.22
2023-01-10T21:24:23.057Z,81.40
2023-01-10T21:27:30.532Z,81.83
2023-01-10T21:30:33.386Z,80.36
2023-01-10T21:33:36.194Z,80.81
2023-01-10T21:36:39.039Z,79.88
2023-01-10T21:39:42.630Z,79.94
2023-01-10T21:42:47.075Z,80.37
2023-01-10T21:45:50.410Z,80.23
2023-01-10T21:48:53.297Z,80.19
2023-01-10T21:51:57.882Z,80.00
2023-01-10T21:55:00.978Z,79.53
2023-01-10T21:58:04.513Z,79.06
2023-01-10T22:01:07.532Z,79.37
2023-01-10T22:04:10.684Z,79.24
2023-01-10T22:07:13.917Z,79.50
2023-01-10T22:10:17.223Z,78.90
2023-01-10T22:13:19.957Z,78.43
2023-01-10T22:16:22.919Z,79.19
2023-01-10T22:19:25.761Z,78.87
2023-01-10T22:22:28.975Z,78.99
2023-01-10T22:25:31.761Z,78.71
2023-01-10T22:28:34.828Z,78.95
2023-01-10T22:31:37.669Z,78.58
2023-01-10T22:34:40.758Z,78.08
2023-01-10T22:37:43.507Z,78.32
2023-01-10T22:40:46.388Z,78.72
2023-01-10T22:43:49.117Z,78.29
2023-01-10T22:46:53.290Z,77.48
2023-01-10T22:49:56.047Z,78.82
2023-01-10T22:52:59.052Z,78.45
2023-01-10T22:56:03.784Z,79.11
2023-01-10T22:59:06.986Z,78.93
2023-01-10T23:02:09.736Z,78.82
2023-01-10T23:05:12.547Z,78.88
2023-01-10T23:08:15.305Z,79.15
2023-01-10T23:11:20.271Z,78.90
2023-01-10T23:14:23.828Z,78.98
2023-01-10T23:17:26.643Z,80.12
2023-01-10T23:20:29.575Z,79.13
2023-01-10T23:23:33.557Z,79.18
2023-01-10T23:26:36.383Z,79.50
2023-01-10T23:29:39.421Z,79.07
2023-01-10T23:32:42.329Z,80.10
2023-01-10T23:35:45.100Z,79.41
2023-01-10T23:38:47.913Z,79.36
2023-01-10T23:41:50.595Z,79.22
2023-01-10T23:44:53.491Z,79.57
2023-01-10T23:47:56.369Z,78.82
2023-01-10T23:50:59.412Z,79.44
2023-01-10T23:54:03.148Z,79.24
2023-01-10T23:57:05.978Z,79.04
